»·PEaware :: SWA1275 KPHX-KABQ

SWA1275 :: KPHX-KABQ

FLIGHT INFORMATION

Flight Status: Arrived
Operator:
Southwest Airlines
More flights by this operator :: More flights under this callsign
Pilot: Bryan S. (13276)
Aircraft: BOEING 737-800
(B738)
More flights by this aircraft type
Origin: KPHX Phoenix Sky Harbor Intl
United States
Destination: KABQ Albuquerque Intl Sunport
United States
More flights between these airports :: More routes between these airports
Route: LALUZ5 SJN CABNO KRKEE3
File this flight plan on PilotEdge
Remarks:
Altitude:
(Current/Filed)
33,000ft
Speed:
(Current/Filed)
490kts
Departed: 13-Jan-18 04:52 PM
Arrived: 13-Jan-18 05:49 PM
Distance/Time
Traveled:
284nm/0:57
Distance/Time
To Go:
Arrived

Flight Plot

Page will automatically refresh every two minutes.

Flight plan parsing failed; only flown route is shown


Map Options




Map Legend


Flown Route
Filed Route
Departure Airport
Arrival Airport
Navaid (VOR, NDB)
Fix

Horizontal Profiles

Position Reports

Time Latitude Longitude Heading Altitude Ground
Speed
13-Jan-18 16:24 33.433428 -111.996436 359 1123ft 0kts
13-Jan-18 16:25 33.433428 -111.996436 359 1123ft 0kts
13-Jan-18 16:26 33.433428 -111.996436 359 1123ft 0kts
13-Jan-18 16:27 33.433428 -111.996436 359 1123ft 0kts
13-Jan-18 16:28 33.433428 -111.996436 359 1123ft 0kts
13-Jan-18 16:29 33.433428 -111.996436 359 1123ft 0kts
13-Jan-18 16:30 33.433428 -111.996436 359 1123ft 0kts
13-Jan-18 16:31 33.433428 -111.996436 359 1123ft 0kts
13-Jan-18 16:32 33.433428 -111.996436 359 1123ft 0kts
13-Jan-18 16:33 33.433428 -111.996436 359 1123ft 0kts
13-Jan-18 16:34 33.433428 -111.996436 359 1123ft 0kts
13-Jan-18 16:35 33.433428 -111.996436 359 1123ft 0kts
13-Jan-18 16:36 33.433428 -111.996436 359 1123ft 0kts
13-Jan-18 16:37 33.433428 -111.996436 359 1123ft 0kts
13-Jan-18 16:38 33.433428 -111.996436 359 1123ft 0kts
13-Jan-18 16:39 33.433428 -111.996436 359 1123ft 0kts
13-Jan-18 16:40 33.433428 -111.996436 359 1123ft 0kts
13-Jan-18 16:41 33.433428 -111.996436 359 1123ft 0kts
13-Jan-18 16:42 33.433175 -111.996328 309 1123ft 2kts
13-Jan-18 16:43 33.433332 -111.995755 190 1123ft 2kts
13-Jan-18 16:44 33.433574 -111.995758 182 1124ft 0kts
13-Jan-18 16:45 33.433574 -111.995758 182 1124ft 0kts
13-Jan-18 16:46 33.433574 -111.995758 182 1124ft 0kts
13-Jan-18 16:47 33.433544 -111.995759 181 1123ft 1kts
13-Jan-18 16:48 33.432825 -111.997505 269 1123ft 12kts
13-Jan-18 16:49 33.432838 -112.001532 269 1125ft 9kts
13-Jan-18 16:50 33.432861 -112.004558 271 1125ft 7kts
13-Jan-18 16:51 33.432885 -112.008746 269 1128ft 15kts
13-Jan-18 16:52 33.432172 -112.013074 271 1124ft 15kts
13-Jan-18 16:53 33.432163 -112.017889 268 1120ft 13kts
13-Jan-18 16:54 33.432183 -112.021948 265 1116ft 7kts
13-Jan-18 16:55 33.432169 -112.024718 271 1116ft 9kts
13-Jan-18 16:56 33.431833 -112.027014 205 1113ft 1kts
13-Jan-18 16:57 33.431058 -112.026360 89 1114ft 16kts
13-Jan-18 16:58 33.430657 -111.990878 89 2075ft 174kts
13-Jan-18 16:59 33.432869 -111.931693 82 4654ft 195kts
13-Jan-18 17:00 33.442879 -111.864394 62 7311ft 228kts
13-Jan-18 17:01 33.474314 -111.788249 62 10139ft 284kts
13-Jan-18 17:02 33.513930 -111.692207 62 12895ft 343kts
13-Jan-18 17:03 33.556902 -111.587609 62 16542ft 362kts
13-Jan-18 17:04 33.601920 -111.477695 61 20139ft 374kts
13-Jan-18 17:05 33.648334 -111.364056 61 23165ft 392kts
13-Jan-18 17:06 33.696085 -111.244913 65 25907ft 410kts
13-Jan-18 17:07 33.740143 -111.118775 64 28962ft 409kts
13-Jan-18 17:08 33.783605 -110.994351 63 31661ft 405kts
13-Jan-18 17:09 33.827057 -110.870365 62 33322ft 405kts
13-Jan-18 17:10 33.871479 -110.744126 62 33394ft 430kts
13-Jan-18 17:11 33.920214 -110.605915 63 33417ft 469kts
13-Jan-18 17:12 33.971324 -110.461253 62 33411ft 468kts
13-Jan-18 17:13 34.022271 -110.317634 63 33407ft 468kts
13-Jan-18 17:14 34.073318 -110.173030 64 33407ft 468kts
13-Jan-18 17:15 34.122508 -110.027837 64 33413ft 469kts
13-Jan-18 17:16 34.171667 -109.882464 64 33414ft 468kts
13-Jan-18 17:17 34.220652 -109.738044 63 33414ft 468kts
13-Jan-18 17:18 34.270191 -109.592483 63 33409ft 468kts
13-Jan-18 17:19 34.319752 -109.447359 63 33398ft 468kts
13-Jan-18 17:20 34.369570 -109.302009 64 33382ft 469kts
13-Jan-18 17:21 34.419565 -109.156516 64 33373ft 469kts
13-Jan-18 17:22 34.442275 -108.999970 78 33375ft 475kts
13-Jan-18 17:23 34.461607 -108.841557 77 33385ft 475kts
13-Jan-18 17:24 34.481271 -108.683663 77 33396ft 475kts
13-Jan-18 17:25 34.501194 -108.525453 77 33403ft 475kts
13-Jan-18 17:26 34.526902 -108.369548 73 33388ft 458kts
13-Jan-18 17:27 34.550540 -108.229498 74 32053ft 416kts
13-Jan-18 17:28 34.573290 -108.095185 74 30026ft 410kts
13-Jan-18 17:29 34.596646 -107.958011 75 27943ft 417kts
13-Jan-18 17:30 34.620411 -107.819629 73 25841ft 420kts
13-Jan-18 17:31 34.669408 -107.697153 58 23807ft 397kts
13-Jan-18 17:32 34.719859 -107.579874 59 21845ft 387kts
13-Jan-18 17:33 34.768919 -107.465528 59 19856ft 377kts
13-Jan-18 17:34 34.816493 -107.354819 59 17816ft 364kts
13-Jan-18 17:35 34.862051 -107.247806 61 15876ft 347kts
13-Jan-18 17:36 34.902394 -107.150070 61 13501ft 311kts
13-Jan-18 17:37 34.942302 -107.056311 60 11950ft 309kts
13-Jan-18 17:38 34.980667 -106.965904 60 10487ft 296kts
13-Jan-18 17:39 35.014443 -106.879552 60 9639ft 251kts
13-Jan-18 17:40 35.043240 -106.805916 64 7833ft 225kts
13-Jan-18 17:41 35.044405 -106.738024 88 6874ft 187kts
13-Jan-18 17:42 35.045002 -106.679212 85 6200ft 162kts
13-Jan-18 17:43 35.044394 -106.623624 89 5472ft 160kts
13-Jan-18 17:44 35.045763 -106.569196 84 7099ft 161kts
13-Jan-18 17:45 35.062670 -106.524183 356 7953ft 159kts
13-Jan-18 17:46 35.107931 -106.552497 318 8964ft 224kts
13-Jan-18 17:47 35.150259 -106.607123 293 7945ft 219kts
13-Jan-18 17:48 35.147692 -106.680902 258 7828ft 227kts
13-Jan-18 17:49 35.131718 -106.755842 258 7712ft 230kts
13-Jan-18 17:50 35.108997 -106.828079 213 7594ft 240kts
13-Jan-18 17:51 35.060275 -106.791104 118 7627ft 206kts
13-Jan-18 17:52 35.045313 -106.727665 83 7418ft 180kts
13-Jan-18 17:53 35.045004 -106.670073 88 6148ft 161kts
13-Jan-18 17:54 35.044316 -106.616144 89 5330ft 153kts
13-Jan-18 17:55 35.045618 -106.596249 335 5336ft 11kts
13-Jan-18 17:56 35.045740 -106.599945 266 5331ft 12kts
13-Jan-18 17:57 35.045755 -106.604360 270 5324ft 14kts
13-Jan-18 17:58 35.045811 -106.609139 272 5323ft 17kts
13-Jan-18 17:59 35.045838 -106.613270 276 5323ft 1kts
13-Jan-18 18:00 35.048100 -106.613461 317 5323ft 8kts
13-Jan-18 18:01 35.048262 -106.615660 219 5323ft 0kts
13-Jan-18 18:02 35.047813 -106.615701 179 5323ft 0kts
13-Jan-18 18:03 35.047813 -106.615701 179 5323ft 0kts

Navigation Log

Ident Type
Flight plan parsing failed, navigation log unavailable